CW2798 Aduanas ES current weather conditions

sailwx.info

Wind from 249 at 4 knots gusting 6

Air temperature 13.3° C
Dewpoint 5.5° C

Last reported at 2017-Mar-23 19:45 UTC.
Time now 2017-Mar-23 20:17 UTC

Location: N 38°48' E 000°11'.
View on Google Maps.

See reports from other nearby stations

  
Tides and Currents Weather Stations Pressure Air Temp Water Temp Dewpoint Dewpoint Depression Visibility Wind Speed Wind Dir Waves Ship Positions
date/time (UTC)wind fromknots sea level pressurealtimeterstation pressurevisibilityair tempwater tempwave heightnotes
2017-Mar-23 19:45 249 4 gusting 6 13.3
2017-Mar-23 19:30 247 5 gusting 7 13.3
2017-Mar-23 18:45 252 3 gusting 5 13.3
2017-Mar-23 18:15 242 5 gusting 6 13.9
2017-Mar-23 18:00 235 6 gusting 10 13.9
2017-Mar-23 17:30 212 7 gusting 9 13.9
2017-Mar-23 17:15 209 9 gusting 19 13.9
2017-Mar-23 17:00 206 9 gusting 20 13.9
2017-Mar-23 16:45 210 9 gusting 14 14.4
2017-Mar-23 16:15 213 8 gusting 17 15.0
2017-Mar-23 15:45 200 8 gusting 13 15.0
2017-Mar-23 14:45 191 5 gusting 7 15.6
2017-Mar-23 14:30 149 5 gusting 9 15.0
2017-Mar-23 14:15 192 4 gusting 4 15.0
2017-Mar-23 12:15 141 2 gusting 8 13.9
2017-Mar-23 12:00 114 2 gusting 5 13.9
2017-Mar-23 11:45 119 1 gusting 6 14.4
2017-Mar-23 11:30 14.4
2017-Mar-23 11:00 288 2 gusting 6 13.9
2017-Mar-23 10:45 325 6 gusting 9 13.3
2017-Mar-23 09:45 270 6 gusting 13 12.8
2017-Mar-23 09:30 276 6 gusting 9 12.8
2017-Mar-23 09:00 301 5 gusting 8 12.2
2017-Mar-23 08:45 286 4 gusting 12 11.7
2017-Mar-23 08:30 250 2 gusting 6 11.7
2017-Mar-23 08:15 293 1 gusting 10 11.7
2017-Mar-23 07:30 302 6 gusting 8 11.7
2017-Mar-23 07:15 273 6 gusting 7 12.2
2017-Mar-23 07:00 266 8 gusting 18 11.7
2017-Mar-23 06:45 261 8 gusting 15 11.7
2017-Mar-23 06:30 263 8 gusting 12 11.7
2017-Mar-23 05:45 265 9 gusting 15 12.2
2017-Mar-23 05:15 284 10 gusting 15 12.8
2017-Mar-23 05:00 273 9 gusting 16 13.3
2017-Mar-23 04:00 276 9 gusting 18 13.3
2017-Mar-23 03:45 288 8 gusting 15 12.8
2017-Mar-23 03:30 286 9 gusting 15 12.8
2017-Mar-23 03:15 274 10 gusting 19 13.3
2017-Mar-23 03:00 268 11 gusting 19 13.3
2017-Mar-23 02:45 275 12 gusting 19 13.9
2017-Mar-23 02:00 300 6 gusting 13 13.3
2017-Mar-23 01:45 279 5 gusting 11 13.3
2017-Mar-23 01:30 293 6 gusting 14 13.9
2017-Mar-23 01:00 331 0 gusting 5 12.2
2017-Mar-23 00:45 12.2
2017-Mar-23 00:15 12.8
2017-Mar-22 23:30 313 0 gusting 2 14.4
2017-Mar-22 23:15 282 0 gusting 1 14.4
2017-Mar-22 22:45 291 0 gusting 2 14.4
2017-Mar-22 21:45 279 15.6
2017-Mar-22 21:30 237 1 gusting 2 15.6
2017-Mar-22 21:15 258 5 gusting 5 16.1
2017-Mar-22 21:00 215 5 gusting 5 16.7
2017-Mar-22 20:45 237 5 gusting 5 16.7
2017-Mar-22 20:30 248 5 gusting 6 16.7
2017-Mar-22 20:15 248 7 gusting 10 16.7
2017-Mar-22 19:45 255 6 gusting 8 16.1
2017-Mar-22 19:15 256 6 gusting 8 16.1
2017-Mar-22 19:00 259 7 gusting 12 16.1
2017-Mar-22 18:45 242 6 gusting 13 16.7
2017-Mar-22 18:30 250 7 gusting 14 16.7
2017-Mar-22 17:45 200 8 gusting 18 17.8
2017-Mar-22 17:30 211 8 gusting 16 18.3
2017-Mar-22 17:00 234 7 gusting 13 17.8
2017-Mar-22 16:30 201 9 gusting 12 17.8
2017-Mar-22 15:45 204 9 gusting 19 18.3
2017-Mar-22 15:30 208 9 gusting 19 18.9
2017-Mar-22 15:00 211 8 gusting 14 18.9
2017-Mar-22 14:15 185 5 gusting 10 19.4
2017-Mar-22 14:00 150 6 gusting 7 19.4
2017-Mar-22 13:30 171 4 gusting 6 19.4
2017-Mar-22 13:00 189 3 gusting 6 18.3
2017-Mar-22 12:45 101 3 gusting 6 17.8
2017-Mar-22 12:30 064 4 gusting 6 17.2
2017-Mar-22 12:15 072 4 gusting 6 17.8
2017-Mar-22 11:30 065 4 gusting 6 17.8
2017-Mar-22 11:15 056 6 gusting 6 17.8
2017-Mar-22 11:00 065 4 gusting 6 17.8
2017-Mar-22 09:45 102 3 gusting 5 17.8
2017-Mar-22 09:15 090 3 gusting 6 17.8
2017-Mar-22 09:00 104 2 gusting 1 18.3
2017-Mar-22 08:45 068 17.8
2017-Mar-22 08:15 087 17.2
2017-Mar-22 08:00 322 17.2
2017-Mar-22 07:45 16.7
2017-Mar-22 07:30 16.7
2017-Mar-22 07:15 137 16.1
2017-Mar-22 07:00 15.0
2017-Mar-22 06:30 13.9
2017-Mar-22 06:15 13.9
2017-Mar-22 06:00 301 0 gusting 0 13.9
2017-Mar-22 05:00 285 6 gusting 6 17.2
2017-Mar-22 04:45 283 7 gusting 14 17.2
2017-Mar-22 04:30 277 9 gusting 17 17.2
2017-Mar-22 04:15 278 11 gusting 16 17.2
2017-Mar-22 03:15 282 9 gusting 15 17.8
2017-Mar-22 02:45 271 8 gusting 14 17.2
2017-Mar-22 02:15 277 10 gusting 15 16.7
2017-Mar-22 02:00 273 11 gusting 17 16.7
2017-Mar-22 01:45 267 11 gusting 20 16.7
2017-Mar-22 01:15 268 9 gusting 20 16.7
2017-Mar-22 01:00 272 11 gusting 17 16.7
2017-Mar-22 00:45 270 9 gusting 16 16.7
2017-Mar-22 00:15 275 11 gusting 21 16.7
2017-Mar-21 23:45 269 9 gusting 15 16.7
2017-Mar-21 23:30 257 6 gusting 13 16.1
2017-Mar-21 23:15 281 5 gusting 10 15.6
2017-Mar-21 23:00 307 5 gusting 7 16.1
2017-Mar-21 22:15 341 6 gusting 11 15.6
2017-Mar-21 21:30 331 6 gusting 9 15.6
2017-Mar-21 20:45 325 8 gusting 14 15.6